METAR Data
IDs: Format: Raw Decoded Include TAF

Data at: 0129 UTC 24 Oct 2019

METAR for:KCAV (Clarion Muni, IA, US)
Text:KCAV 240115Z AUTO 32006KT 10SM BKN035 OVC046 04/03 A3008 RMK A01
Temperature: 4.0°C ( 39°F)
Dewpoint: 3.0°C ( 37°F) [RH = 93%]
Pressure (altimeter):30.08 inches Hg (1018.7 mb)
Winds:from the NW (320 degrees) at 7 MPH (6 knots; 3.1 m/s)
Visibility:10 or more sm (16+ km)
Ceiling:3500 feet AGL
Clouds: broken clouds at 3500 feet AGL, overcast cloud deck at 4600 feet AGL
QC Flag:automated observation with no human augmentation